Twin Springs, Nevada Weather observations

Data are for observation ending at time listed.
 Day   Time    Ave.   Ave.  Ave.  Vector   Max.   Stn.    Total    Solar   Ave.  
  of    of     Air    Rel.  Wind   Wind    Wind   Baro.  Precip.   Rad.    Soil  
Year   Day     Temp.  Hum.  Speed  Dir.    Gust   Pres.                    Temp. 
2014   (PST)    F      %     mph   deg.    mph     mb.     in.     W/m2     F   
------------------------------------------------------------------------------
 212   15:00   89.9    19   13.0   339     31.4    845     0.00     648    90.8
 212   16:00   90.3    18    9.8   332     19.0    845     0.00     675    90.5
 212   17:00   87.3    20    8.1   317     14.8    845     0.00     133    91.0
 212   18:00   84.9    22    7.1   322     14.5    845     0.00      71    91.1
 212   19:00   82.2    27    3.6   315      8.6    845     0.00      21    90.3
 212   20:00   78.6    31    2.8   325     28.2    845     0.00       0    89.2
 212   21:00   76.0    36   11.9     4     29.3    846     0.00       0    87.9
 212   22:00   72.9    39    5.5   308     12.3    847     0.00       0    86.5
 212   23:00   70.4    42    2.7   292      9.0    847     0.00       0    84.9
 213    0:00   67.9    46    3.5   312      6.6    847     0.00       0    83.3
 213    1:00   65.2    52    3.5   345      6.4    847     0.00       0    81.9
 213    2:00   62.2    58    3.8   331      6.9    847     0.00       0    80.6
 213    3:00   62.1    60    3.8   351      6.4    848     0.00       0    79.4
 213    4:00   60.0    65    3.5   347      7.3    848     0.00       0    78.3
 213    5:00   59.0    67    4.1   347      6.9    848     0.00       2    77.3
 213    6:00   58.8    67    3.9   345      6.4    848     0.00      63    76.4
 213    7:00   65.8    54    4.5   335      7.1    848     0.00     285    75.6
 213    8:00   71.0    44    4.5   335      8.0    848     0.00     493    75.1
 213    9:00   77.1    34    2.1   316      7.2    848     0.00     689    75.5
 213   10:00   81.9    27    3.5   138     11.5    848     0.00     847    76.9
 213   11:00   85.7    22    4.0   147     12.2    848     0.00     958    79.6
 213   12:00   89.2    18    3.5   135     12.3    847     0.00    1016    83.2
 213   13:00   89.4    18    4.5   156     14.1    846     0.00     600    87.0
 213   14:00   88.6    17    2.3   122      9.0    846     0.00     221    89.6

Return to Twin Springs, Nevada graphs page.


Western Regional Climate Center,wrcc@dri.edu